Time;durP1;ratioP1;P1;durP2;ratioP2;P2;SDS_P1;SDS_P2;PMS_P1;PMS_P2;Temp;Humidity;BMP_temperature;BMP_pressure;BME280_temperature;BME280_humidity;BME280_pressure;Samples;Min_cycle;Max_cycle;Signal;HPM_P1;HPM_P2
2022/11/19 00:01:05;;;;;;;1999.90;999.90;;;-0.90;99.90;;;;;;5047348;28;20462;-68
2022/11/19 00:03:34;;;;;;;1999.90;999.90;;;-0.70;99.90;;;;;;5045678;28;20458;-69
2022/11/19 00:06:05;;;;;;;1999.90;999.90;;;-1.00;99.90;;;;;;5044850;28;20494;-68
2022/11/19 00:08:32;;;;;;;1999.90;999.90;;;-1.00;99.90;;;;;;5044252;28;20454;-68
2022/11/19 00:11:04;;;;;;;1999.90;999.90;;;-1.10;99.90;;;;;;5046991;28;20466;-67
2022/11/19 00:13:30;;;;;;;1999.90;999.90;;;-1.00;99.90;;;;;;5043138;28;20508;-69
2022/11/19 00:16:03;;;;;;;1999.90;999.90;;;-1.00;99.90;;;;;;5046267;28;20446;-68
2022/11/19 00:18:30;;;;;;;1999.90;999.90;;;-1.10;99.90;;;;;;5048277;28;20829;-69
2022/11/19 00:21:04;;;;;;;1999.90;999.90;;;-1.10;99.90;;;;;;5047426;28;20462;-69
2022/11/19 00:23:31;;;;;;;1999.90;999.90;;;-1.20;99.90;;;;;;5044505;28;20471;-68
2022/11/19 00:26:04;;;;;;;1999.90;999.90;;;-1.30;99.90;;;;;;5044527;28;20485;-68
2022/11/19 00:28:31;;;;;;;1999.90;999.90;;;-1.30;99.90;;;;;;5047169;28;20462;-68
2022/11/19 00:31:03;;;;;;;1999.90;999.90;;;-1.40;99.90;;;;;;5046972;28;20474;-69
2022/11/19 00:33:30;;;;;;;1999.90;999.90;;;-1.40;99.90;;;;;;5048030;28;20462;-67
2022/11/19 00:35:57;;;;;;;1999.90;999.90;;;-1.40;99.90;;;;;;5045751;28;20461;-68
2022/11/19 00:38:24;;;;;;;1999.90;999.90;;;-1.40;99.90;;;;;;5047861;28;20462;-68
2022/11/19 00:40:50;;;;;;;1999.90;999.90;;;-1.40;99.90;;;;;;5048157;28;20462;-69
2022/11/19 00:46:02;;;;;;;1999.90;999.90;;;-1.30;99.90;;;;;;5045575;28;20474;-69
2022/11/19 00:48:29;;;;;;;1999.90;999.90;;;-1.40;99.90;;;;;;5047497;28;20458;-69
2022/11/19 00:50:56;;;;;;;1999.90;999.90;;;-1.40;99.90;;;;;;5047479;28;20461;-68
2022/11/19 00:53:23;;;;;;;1999.90;999.90;;;-1.40;99.90;;;;;;5048787;28;20454;-69
2022/11/19 00:55:50;;;;;;;1999.90;999.90;;;-1.50;99.90;;;;;;5044536;28;20470;-68
2022/11/19 00:58:18;;;;;;;1999.90;999.90;;;-1.50;99.90;;;;;;5047818;28;20862;-68
2022/11/19 01:00:45;;;;;;;1999.90;999.90;;;-1.50;99.90;;;;;;5048374;28;20508;-69
2022/11/19 01:03:13;;;;;;;1999.90;999.90;;;-1.60;99.90;;;;;;5046309;28;20462;-69
2022/11/19 01:05:40;;;;;;;1999.90;999.90;;;-1.60;99.90;;;;;;5045127;28;20478;-68
2022/11/19 01:08:06;;;;;;;1999.90;999.90;;;-1.70;99.90;;;;;;5047069;28;20474;-69
2022/11/19 01:10:34;;;;;;;1999.90;999.90;;;-1.70;99.90;;;;;;5048023;28;20462;-68
2022/11/19 01:15:48;;;;;;;1999.90;999.90;;;-1.90;99.90;;;;;;5043243;28;20988;-68
2022/11/19 01:18:16;;;;;;;1999.90;999.90;;;-1.90;99.90;;;;;;5046862;28;20482;-68
2022/11/19 01:20:44;;;;;;;1999.90;999.90;;;-1.90;99.90;;;;;;5048991;28;20454;-68
2022/11/19 01:23:11;;;;;;;1999.90;999.90;;;-1.90;99.90;;;;;;5046221;28;21026;-69
2022/11/19 01:25:38;;;;;;;1999.90;999.90;;;-1.90;99.90;;;;;;5045678;28;20973;-70
2022/11/19 01:28:05;;;;;;;1999.90;999.90;;;-1.90;99.90;;;;;;5046066;28;20484;-69
2022/11/19 01:30:33;;;;;;;1999.90;999.90;;;-2.00;99.90;;;;;;5047865;28;20469;-69
2022/11/19 01:32:59;;;;;;;1999.90;999.90;;;-2.00;99.90;;;;;;5046165;28;20462;-68
2022/11/19 01:35:28;;;;;;;1999.90;999.90;;;-2.00;99.90;;;;;;5045562;28;20481;-68
2022/11/19 01:37:54;;;;;;;1999.90;999.90;;;-2.00;99.90;;;;;;5047405;28;20466;-69
2022/11/19 01:40:21;;;;;;;1999.90;999.90;;;-2.10;99.90;;;;;;5047878;28;20458;-69
2022/11/19 01:42:52;;;;;;;1999.90;999.90;;;-2.10;99.90;;;;;;5048197;28;20458;-68
2022/11/19 01:45:25;;;;;;;1999.90;999.90;;;-2.20;99.90;;;;;;5046310;28;20497;-69
2022/11/19 01:47:53;;;;;;;1999.90;999.90;;;-2.20;99.90;;;;;;5046503;28;20454;-70
2022/11/19 01:50:20;;;;;;;1999.90;999.90;;;-2.20;99.90;;;;;;5048943;28;20466;-69
2022/11/19 01:52:49;;;;;;;1999.90;999.90;;;-2.30;99.90;;;;;;5047973;28;20954;-69
2022/11/19 01:55:17;;;;;;;1999.90;999.90;;;-2.30;99.90;;;;;;5042937;28;20847;-69
2022/11/19 01:57:44;;;;;;;1999.90;999.90;;;-2.40;99.90;;;;;;5047268;28;20465;-68
2022/11/19 02:00:12;;;;;;;1999.90;999.90;;;-2.40;99.90;;;;;;5046800;28;20466;-69
2022/11/19 02:02:39;;;;;;;1999.90;999.90;;;-2.40;99.90;;;;;;5042396;28;20488;-69
2022/11/19 02:05:07;;;;;;;1999.90;999.90;;;-2.40;99.90;;;;;;5043979;28;20490;-68
2022/11/19 02:07:35;;;;;;;1999.90;999.90;;;-2.40;99.90;;;;;;5047247;28;20458;-68
2022/11/19 02:10:06;;;;;;;1999.90;999.90;;;-2.40;99.90;;;;;;5048314;28;20457;-68
2022/11/19 02:12:41;;;;;;;1999.90;999.90;;;-2.40;99.90;;;;;;5051020;28;20460;-68
2022/11/19 02:15:22;;;;;;;1999.90;999.90;;;-2.40;99.90;;;;;;5049244;28;20482;-69
2022/11/19 02:18:14;;;;;;;1999.90;999.90;;;-2.40;99.90;;;;;;5048552;28;20457;-67
2022/11/19 02:20:47;;;;;;;1999.90;999.90;;;-2.50;99.90;;;;;;5041480;28;20841;-69
2022/11/19 02:23:59;;;;;;;1999.90;999.90;;;-2.50;99.90;;;;;;5050468;28;20493;-69
2022/11/19 02:27:03;;;;;;;1999.90;999.90;;;-2.50;99.90;;;;;;5049399;28;20481;-68
2022/11/19 02:30:07;;;;;;;1999.90;999.90;;;-2.60;99.90;;;;;;5050364;28;20529;-68
2022/11/19 02:32:38;;;;;;;1999.90;999.90;;;-2.60;99.90;;;;;;5029846;28;20468;-69
2022/11/19 02:35:14;;;;;;;1999.90;999.90;;;-2.60;99.90;;;;;;5049190;28;20470;-70
2022/11/19 02:37:47;;;;;;;1999.90;999.90;;;-2.60;99.90;;;;;;5047144;28;20474;-70
2022/11/19 02:40:20;;;;;;;1999.90;999.90;;;-2.70;99.90;;;;;;5050230;28;20482;-68
2022/11/19 02:42:54;;;;;;;1999.90;999.90;;;-2.70;99.90;;;;;;5050484;28;20458;-69
2022/11/19 02:45:26;;;;;;;1999.90;999.90;;;-2.70;99.90;;;;;;5049416;28;20998;-68
2022/11/19 02:47:56;;;;;;;1999.90;999.90;;;-2.60;99.90;;;;;;5057884;22;20518;-69
2022/11/19 02:50:28;;;;;;;1999.90;999.90;;;-2.60;99.90;;;;;;5033889;28;20451;-69
2022/11/19 02:52:55;;;;;;;1999.90;999.90;;;-2.70;99.90;;;;;;5031984;28;20459;-68
2022/11/19 02:55:23;;;;;;;1999.90;999.90;;;-2.70;99.90;;;;;;5030000;28;20959;-70
2022/11/19 02:57:55;;;;;;;1999.90;999.90;;;-2.80;99.90;;;;;;5034388;28;20483;-69
2022/11/19 03:05:57;;;;;;;1999.90;999.90;;;-2.90;99.90;;;;;;5031729;28;20830;-72
2022/11/19 03:08:24;;;;;;;1999.90;999.90;;;-2.90;99.90;;;;;;5034981;28;20490;-74
2022/11/19 03:11:02;;;;;;;1999.90;999.90;;;-2.90;99.90;;;;;;5035780;28;20463;-69
2022/11/19 03:16:42;;;;;;;1999.90;999.90;;;-3.00;99.90;;;;;;5033029;28;20481;-72
2022/11/19 03:19:36;;;;;;;1999.90;999.90;;;-2.90;99.90;;;;;;5032788;28;20459;-69
2022/11/19 03:22:09;;;;;;;1999.90;999.90;;;-3.00;99.90;;;;;;5032128;28;20978;-69
2022/11/19 03:24:40;;;;;;;1999.90;999.90;;;-3.00;99.90;;;;;;5027350;28;20463;-70
2022/11/19 03:27:11;;;;;;;1999.90;999.90;;;-3.00;99.90;;;;;;5034023;28;20489;-68
2022/11/19 03:29:42;;;;;;;1999.90;999.90;;;-3.00;99.90;;;;;;5033909;28;20452;-69
2022/11/19 03:32:16;;;;;;;1999.90;999.90;;;-3.00;99.90;;;;;;5033596;28;20463;-70
2022/11/19 03:34:47;;;;;;;1999.90;999.90;;;-3.00;99.90;;;;;;5027270;28;20455;-68
2022/11/19 03:37:16;;;;;;;1999.90;999.90;;;-3.00;99.90;;;;;;5032329;28;20847;-74
2022/11/19 03:39:45;;;;;;;1999.90;999.90;;;-3.00;99.90;;;;;;5031796;28;20455;-69
2022/11/19 03:42:14;;;;;;;1999.90;999.90;;;-3.10;99.90;;;;;;5034124;28;20568;-70
2022/11/19 03:44:46;;;;;;;1999.90;999.90;;;-3.10;99.90;;;;;;5032398;28;20459;-68
2022/11/19 03:47:19;;;;;;;1999.90;999.90;;;-3.20;99.90;;;;;;5033828;28;20490;-70
2022/11/19 03:49:48;;;;;;;1999.90;999.90;;;-3.20;99.90;;;;;;5030710;28;20466;-69
2022/11/19 03:52:17;;;;;;;1999.90;999.90;;;-3.20;99.90;;;;;;5033321;28;20459;-68
2022/11/19 03:54:45;;;;;;;1999.90;999.90;;;-3.20;99.90;;;;;;5025887;28;20510;-69
2022/11/19 03:57:14;;;;;;;1999.90;999.90;;;-3.20;99.90;;;;;;5031339;28;20498;-69
2022/11/19 03:59:41;;;;;;;1999.90;999.90;;;-3.20;99.90;;;;;;5031916;28;20463;-71
2022/11/19 04:02:10;;;;;;;1999.90;999.90;;;-3.50;99.90;;;;;;5038277;28;21001;-72
2022/11/19 04:04:39;;;;;;;1999.90;999.90;;;-3.30;99.90;;;;;;5033638;28;20989;-69
2022/11/19 04:07:07;;;;;;;1999.90;999.90;;;-3.30;99.90;;;;;;5031929;28;20573;-69
2022/11/19 04:09:34;;;;;;;1999.90;999.90;;;-3.30;99.90;;;;;;5031944;28;20470;-69
2022/11/19 04:12:02;;;;;;;1999.90;999.90;;;-3.40;99.90;;;;;;5031760;28;20463;-70
2022/11/19 04:14:29;;;;;;;1999.90;999.90;;;-3.40;99.90;;;;;;5029148;28;20471;-69
2022/11/19 04:16:56;;;;;;;1999.90;999.90;;;-3.40;99.90;;;;;;5032745;28;20478;-70
2022/11/19 04:19:23;;;;;;;1999.90;999.90;;;-3.40;99.90;;;;;;5029611;28;20462;-67
2022/11/19 04:21:51;;;;;;;1999.90;999.90;;;-3.30;99.90;;;;;;5036922;28;20463;-67
2022/11/19 04:24:18;;;;;;;1999.90;999.90;;;-3.40;99.90;;;;;;5033916;28;20471;-67
2022/11/19 04:26:45;;;;;;;1999.90;999.90;;;-3.30;99.90;;;;;;5031292;28;20564;-69
2022/11/19 04:29:12;;;;;;;1999.90;999.90;;;-3.30;99.90;;;;;;5030747;28;21013;-71
2022/11/19 04:31:39;;;;;;;1999.90;999.90;;;-3.30;99.90;;;;;;5031737;28;20459;-69
2022/11/19 04:34:05;;;;;;;1999.90;999.90;;;-3.40;99.90;;;;;;5031067;28;20466;-69
2022/11/19 04:36:32;;;;;;;1999.90;999.90;;;-3.40;99.90;;;;;;5030563;28;20462;-70
2022/11/19 04:39:01;;;;;;;1999.90;999.90;;;-3.40;99.90;;;;;;5032146;28;20538;-68
2022/11/19 04:41:27;;;;;;;1999.90;999.90;;;-3.40;99.90;;;;;;5031876;28;20483;-69
2022/11/19 04:43:54;;;;;;;1999.90;999.90;;;-3.50;99.90;;;;;;5031035;28;20470;-66
2022/11/19 04:46:21;;;;;;;1999.90;999.90;;;-3.40;99.90;;;;;;5028646;28;20488;-70
2022/11/19 04:48:48;;;;;;;1999.90;999.90;;;-3.40;99.90;;;;;;5026892;28;20499;-68
2022/11/19 04:51:15;;;;;;;1999.90;999.90;;;-3.50;99.90;;;;;;5029618;28;20469;-70
2022/11/19 04:53:42;;;;;;;1999.90;999.90;;;-3.50;99.90;;;;;;5031540;28;20463;-70
2022/11/19 04:56:10;;;;;;;1999.90;999.90;;;-3.60;99.90;;;;;;5027781;28;20861;-70
2022/11/19 04:58:37;;;;;;;1999.90;999.90;;;-3.60;99.90;;;;;;5030521;28;20493;-70
2022/11/19 05:01:04;;;;;;;1999.90;999.90;;;-3.60;99.90;;;;;;5031139;28;20458;-69
2022/11/19 05:03:31;;;;;;;1999.90;999.90;;;-3.70;99.90;;;;;;5035643;28;20554;-69
2022/11/19 05:05:58;;;;;;;1999.90;999.90;;;-3.60;99.90;;;;;;5034299;28;20551;-71
2022/11/19 05:08:25;;;;;;;1999.90;999.90;;;-3.70;99.90;;;;;;5041546;28;20497;-69
2022/11/19 05:10:52;;;;;;;1999.90;999.90;;;-3.70;99.90;;;;;;5032677;28;20459;-69
2022/11/19 05:13:20;;;;;;;1999.90;999.90;;;-3.70;99.90;;;;;;5029868;28;20470;-69
2022/11/19 05:15:46;;;;;;;1999.90;999.90;;;-3.70;99.90;;;;;;5031018;28;21030;-69
2022/11/19 05:18:14;;;;;;;1999.90;999.90;;;-3.70;99.90;;;;;;5029811;28;20948;-69
2022/11/19 05:20:41;;;;;;;1999.90;999.90;;;-3.70;99.90;;;;;;5031536;28;21067;-69
2022/11/19 05:23:07;;;;;;;1999.90;999.90;;;-3.70;99.90;;;;;;5030694;28;20467;-68
2022/11/19 05:25:34;;;;;;;1999.90;999.90;;;-3.70;99.90;;;;;;5030427;28;20474;-69
2022/11/19 05:28:01;;;;;;;1999.90;999.90;;;-3.70;99.90;;;;;;5031196;28;21014;-71
2022/11/19 05:30:29;;;;;;;1999.90;999.90;;;-3.70;99.90;;;;;;5030091;28;20548;-70
2022/11/19 05:32:56;;;;;;;1999.90;999.90;;;-3.80;99.90;;;;;;5031175;28;20834;-70
2022/11/19 05:35:23;;;;;;;1999.90;999.90;;;-3.70;99.90;;;;;;5029029;28;20475;-67
2022/11/19 05:37:50;;;;;;;1999.90;999.90;;;-3.70;99.90;;;;;;5032941;28;20479;-69
2022/11/19 05:40:18;;;;;;;1999.90;999.90;;;-3.70;99.90;;;;;;5029837;28;20463;-69
2022/11/19 05:42:44;;;;;;;1999.90;999.90;;;-3.70;99.90;;;;;;5031250;28;20576;-69
2022/11/19 05:45:11;;;;;;;1999.90;999.90;;;-3.70;99.90;;;;;;5028808;28;20836;-69
2022/11/19 05:47:40;;;;;;;1999.90;999.90;;;-3.70;99.90;;;;;;5033609;28;20494;-70
2022/11/19 05:50:07;;;;;;;1999.90;999.90;;;-3.70;99.90;;;;;;5035052;28;20462;-67
2022/11/19 05:52:33;;;;;;;1999.90;999.90;;;-3.80;99.90;;;;;;5035900;28;21028;-70
2022/11/19 05:55:01;;;;;;;1999.90;999.90;;;-3.80;99.90;;;;;;5033837;28;20463;-68
2022/11/19 05:57:27;;;;;;;1999.90;999.90;;;-3.90;99.90;;;;;;5032872;28;20483;-68
2022/11/19 05:59:54;;;;;;;1999.90;999.90;;;-3.90;99.90;;;;;;5035789;28;20463;-69
2022/11/19 06:02:21;;;;;;;1999.90;999.90;;;-3.80;99.90;;;;;;5035251;28;20468;-69
2022/11/19 06:04:49;;;;;;;1999.90;999.90;;;-3.90;99.90;;;;;;5035820;28;20462;-69
2022/11/19 06:07:16;;;;;;;1999.90;999.90;;;-3.90;99.90;;;;;;5033307;28;21034;-69
2022/11/19 06:09:43;;;;;;;1999.90;999.90;;;-3.90;99.90;;;;;;5034903;28;20454;-69
2022/11/19 06:12:09;;;;;;;1999.90;999.90;;;-3.90;99.90;;;;;;5036029;28;20458;-68
2022/11/19 06:14:36;;;;;;;1999.90;999.90;;;-4.00;99.90;;;;;;5033140;28;20965;-74
2022/11/19 06:17:03;;;;;;;1999.90;999.90;;;-4.00;99.90;;;;;;5034738;28;21022;-69
2022/11/19 06:19:30;;;;;;;1999.90;999.90;;;-3.90;99.90;;;;;;5034241;28;20455;-68
2022/11/19 06:21:58;;;;;;;1999.90;999.90;;;-3.80;99.90;;;;;;5034419;28;20463;-69
2022/11/19 06:24:25;;;;;;;1999.90;999.90;;;-3.80;99.90;;;;;;5033195;28;20470;-67
2022/11/19 06:26:51;;;;;;;1999.90;999.90;;;-3.90;99.90;;;;;;5032904;28;20846;-71
2022/11/19 06:29:19;;;;;;;1999.90;999.90;;;-3.90;99.90;;;;;;5032606;28;20959;-69
2022/11/19 06:31:46;;;;;;;1999.90;999.90;;;-3.90;99.90;;;;;;5033751;28;20495;-66
2022/11/19 06:34:13;;;;;;;1999.90;999.90;;;-4.00;99.90;;;;;;5034233;28;20470;-69
2022/11/19 06:36:40;;;;;;;1999.90;999.90;;;-4.00;99.90;;;;;;5032224;28;20455;-68
2022/11/19 06:39:09;;;;;;;1999.90;999.90;;;-4.00;99.90;;;;;;5033918;28;20463;-70
2022/11/19 06:41:36;;;;;;;1999.90;999.90;;;-4.00;99.90;;;;;;5034388;28;20466;-70
2022/11/19 06:44:03;;;;;;;1999.90;999.90;;;-4.00;99.90;;;;;;5034599;28;20835;-70
2022/11/19 06:46:30;;;;;;;1999.90;999.90;;;-4.00;99.90;;;;;;5031577;28;20565;-69
2022/11/19 06:48:57;;;;;;;1999.90;999.90;;;-4.00;99.90;;;;;;5034463;28;20494;-70
2022/11/19 06:51:24;;;;;;;1999.90;999.90;;;-4.00;99.90;;;;;;5034653;28;20458;-69
2022/11/19 06:53:51;;;;;;;1999.90;999.90;;;-4.00;99.90;;;;;;5036124;28;20459;-68
2022/11/19 06:56:19;;;;;;;1999.90;999.90;;;-4.00;99.90;;;;;;5033132;28;20543;-69
2022/11/19 06:58:45;;;;;;;1999.90;999.90;;;-4.00;99.90;;;;;;5032868;28;20478;-69
2022/11/19 07:01:14;;;;;;;1999.90;999.90;;;-4.00;99.90;;;;;;5033522;28;20467;-70
2022/11/19 07:03:40;;;;;;;1999.90;999.90;;;-3.90;99.90;;;;;;5033026;28;20525;-70
2022/11/19 07:06:08;;;;;;;1999.90;999.90;;;-3.90;99.90;;;;;;5034672;28;20463;-69
2022/11/19 07:08:36;;;;;;;1999.90;999.90;;;-4.00;99.90;;;;;;5032240;28;20483;-68
2022/11/19 07:11:24;;;;;;;1999.90;999.90;;;-3.90;99.90;;;;;;5035594;28;20458;-73
2022/11/19 07:13:58;;;;;;;1999.90;999.90;;;-3.90;99.90;;;;;;5036779;28;20480;-69
2022/11/19 07:16:27;;;;;;;1999.90;999.90;;;-4.00;99.90;;;;;;5032045;28;20459;-69
2022/11/19 07:18:56;;;;;;;1999.90;999.90;;;-3.90;99.90;;;;;;5035330;28;21064;-69
2022/11/19 07:21:23;;;;;;;1999.90;999.90;;;-3.80;99.90;;;;;;5043627;28;20468;-69
2022/11/19 07:23:49;;;;;;;1999.90;999.90;;;-3.70;99.90;;;;;;5035864;28;20443;-67
2022/11/19 07:26:16;;;;;;;1999.90;999.90;;;-3.60;99.90;;;;;;5035330;28;20447;-69
2022/11/19 07:28:43;;;;;;;1999.90;999.90;;;-3.60;99.90;;;;;;5035899;28;20486;-73
2022/11/19 07:31:11;;;;;;;1999.90;999.90;;;-3.50;99.90;;;;;;5034798;28;20553;-68
2022/11/19 07:33:38;;;;;;;1999.90;999.90;;;-3.40;99.90;;;;;;5030588;28;20463;-70
2022/11/19 07:36:06;;;;;;;1999.90;999.90;;;-3.40;99.90;;;;;;5032524;28;20550;-68
2022/11/19 07:38:33;;;;;;;1999.90;999.90;;;-3.10;99.90;;;;;;5026416;28;20479;-67
2022/11/19 07:41:00;;;;;;;1999.90;999.90;;;-3.10;99.90;;;;;;5028302;28;20851;-67
2022/11/19 07:43:26;;;;;;;1999.90;999.90;;;-3.00;99.90;;;;;;5040939;28;20443;-67
2022/11/19 07:45:53;;;;;;;1999.90;999.90;;;-2.90;99.90;;;;;;5033631;28;20530;-67
2022/11/19 07:48:21;;;;;;;1999.90;999.90;;;-2.80;99.90;;;;;;5040387;28;20231;-66
2022/11/19 07:50:51;;;;;;;1999.90;999.90;;;-2.80;99.90;;;;;;5030806;28;20459;-67
2022/11/19 07:53:17;;;;;;;1999.90;999.90;;;-2.60;99.90;;;;;;5036613;28;20471;-73
2022/11/19 07:55:46;;;;;;;1999.90;999.90;;;-2.70;99.90;;;;;;5025101;28;20462;-69
2022/11/19 07:58:14;;;;;;;1999.90;999.90;;;-2.40;99.90;;;;;;5030324;28;20475;-66
2022/11/19 08:00:41;;;;;;;1999.90;999.90;;;-2.30;99.90;;;;;;5033066;28;20464;-69
2022/11/19 08:03:10;;;;;;;1999.90;999.90;;;-2.20;99.90;;;;;;5042786;28;20633;-69
2022/11/19 08:05:40;;;;;;;1999.90;999.90;;;-2.20;99.90;;;;;;5027071;28;20459;-69
2022/11/19 08:08:07;;;;;;;1999.90;999.90;;;-2.20;99.90;;;;;;5029498;28;20490;-71
2022/11/19 08:10:35;;;;;;;1999.90;999.90;;;-1.90;99.90;;;;;;5032319;28;20439;-70
2022/11/19 08:13:04;;;;;;;1999.90;999.90;;;-1.80;99.90;;;;;;5032009;28;20462;-70
2022/11/19 08:15:32;;;;;;;1999.90;999.90;;;-1.60;99.90;;;;;;5031088;28;20443;-70
2022/11/19 08:18:14;;;;;;;1999.90;999.90;;;-1.50;99.90;;;;;;5030501;28;20479;-70
2022/11/19 08:20:44;;;;;;;1999.90;999.90;;;-1.20;99.90;;;;;;5027862;28;20446;-70
2022/11/19 08:23:12;;;;;;;1999.90;999.90;;;-1.10;99.90;;;;;;5034269;28;20542;-70
2022/11/19 08:25:39;;;;;;;1999.90;999.90;;;-0.90;99.90;;;;;;5032972;28;20537;-70
2022/11/19 08:28:05;;;;;;;1999.90;999.90;;;-0.70;99.90;;;;;;5032924;28;20483;-70
2022/11/19 08:30:33;;;;;;;1999.90;999.90;;;-0.70;99.90;;;;;;5032662;28;20459;-69
2022/11/19 08:33:00;;;;;;;1999.90;999.90;;;-0.60;99.90;;;;;;5033372;28;20447;-71
2022/11/19 08:35:27;;;;;;;1999.90;999.90;;;-0.60;99.90;;;;;;5033172;28;20900;-70
2022/11/19 08:37:56;;;;;;;1999.90;999.90;;;-0.70;99.90;;;;;;5033933;28;20456;-71
2022/11/19 08:40:24;;;;;;;1999.90;999.90;;;-0.70;99.90;;;;;;5033625;28;20451;-70
2022/11/19 08:42:58;;;;;;;1999.90;999.90;;;-0.80;99.90;;;;;;5031088;28;20463;-70
2022/11/19 08:45:26;;;;;;;1999.90;999.90;;;-0.80;99.90;;;;;;5033488;28;20449;-69
2022/11/19 08:47:53;;;;;;;1999.90;999.90;;;-0.80;99.90;;;;;;5029417;28;20491;-70
2022/11/19 08:50:20;;;;;;;1999.90;999.90;;;-0.70;99.90;;;;;;5063862;22;20506;-65
2022/11/19 08:52:55;;;;;;;1999.90;999.90;;;-0.50;99.90;;;;;;5047419;28;20833;-65
2022/11/19 08:55:22;;;;;;;1999.90;999.90;;;-0.40;99.90;;;;;;5046285;28;20472;-65
2022/11/19 08:57:49;;;;;;;1999.90;999.90;;;-0.30;99.90;;;;;;5048436;28;20508;-67
2022/11/19 09:00:18;;;;;;;1999.90;999.90;;;-0.20;99.90;;;;;;5049252;28;20478;-67
2022/11/19 09:02:45;;;;;;;1999.90;999.90;;;-0.20;99.90;;;;;;5047151;28;20458;-67
2022/11/19 09:05:11;;;;;;;1999.90;999.90;;;-0.10;99.90;;;;;;5045085;28;20469;-68
2022/11/19 09:07:38;;;;;;;1999.90;999.90;;;0.00;99.90;;;;;;5048209;28;20493;-67
2022/11/19 09:10:07;;;;;;;1999.90;999.90;;;0.10;99.90;;;;;;5049651;28;20474;-67
2022/11/19 09:12:34;;;;;;;1999.90;999.90;;;0.30;99.90;;;;;;5048561;28;20967;-67
2022/11/19 09:15:01;;;;;;;1999.90;999.90;;;0.40;99.90;;;;;;5048678;28;20541;-66
2022/11/19 09:17:27;;;;;;;1999.90;999.90;;;0.40;99.90;;;;;;5048509;28;20458;-67
2022/11/19 09:19:54;;;;;;;1999.90;999.90;;;0.40;99.90;;;;;;5052425;28;21255;-67
2022/11/19 09:22:21;;;;;;;1999.90;999.90;;;0.30;99.90;;;;;;5052483;28;21000;-68
2022/11/19 09:24:48;;;;;;;1999.90;999.90;;;0.30;99.90;;;;;;5046381;28;20459;-67
2022/11/19 09:27:16;;;;;;;1999.90;999.90;;;0.30;99.90;;;;;;5045813;28;20482;-67
2022/11/19 09:29:43;;;;;;;1999.90;999.90;;;0.20;99.90;;;;;;5050550;28;20478;-66
2022/11/19 09:32:09;;;;;;;1999.90;999.90;;;0.10;99.90;;;;;;5053660;28;20462;-69
2022/11/19 09:34:39;;;;;;;1999.90;999.90;;;0.00;99.90;;;;;;5050001;28;20473;-67
2022/11/19 09:37:06;;;;;;;1999.90;999.90;;;-0.10;99.90;;;;;;5051942;28;20481;-68
2022/11/19 09:39:33;;;;;;;1999.90;999.90;;;-0.20;99.90;;;;;;5051717;28;20477;-67
2022/11/19 09:42:11;;;;;;;1999.90;999.90;;;-0.30;99.90;;;;;;5053162;28;20454;-68
2022/11/19 09:44:59;;;;;;;1999.90;999.90;;;-0.20;99.90;;;;;;5050811;28;20996;-67
2022/11/19 09:47:40;;;;;;;1999.90;999.90;;;-0.40;99.90;;;;;;5047992;28;20491;-67
2022/11/19 09:50:14;;;;;;;1999.90;999.90;;;-0.40;99.90;;;;;;5050410;28;20481;-69
2022/11/19 09:52:45;;;;;;;1999.90;999.90;;;-0.40;99.90;;;;;;5055303;28;20434;-67
2022/11/19 09:55:18;;;;;;;1999.90;999.90;;;-0.40;99.90;;;;;;5052640;28;20438;-69
2022/11/19 09:57:49;;;;;;;1999.90;999.90;;;-0.40;99.90;;;;;;5055304;28;20438;-67
2022/11/19 10:00:20;;;;;;;1999.90;999.90;;;-0.40;99.90;;;;;;5053173;28;20849;-67
2022/11/19 10:02:47;;;;;;;1999.90;999.90;;;-0.40;99.90;;;;;;5055256;28;20783;-66
2022/11/19 10:05:16;;;;;;;1999.90;999.90;;;-0.40;99.90;;;;;;5054092;28;20439;-67
2022/11/19 10:07:54;;;;;;;1999.90;999.90;;;-0.20;99.90;;;;;;5054959;28;20482;-68
2022/11/19 10:10:35;;;;;;;1999.90;999.90;;;-0.10;99.90;;;;;;5054674;28;20484;-69
2022/11/19 10:13:25;;;;;;;1999.90;999.90;;;0.00;99.90;;;;;;5053911;28;21133;-67
2022/11/19 10:16:06;;;;;;;1999.90;999.90;;;0.10;99.90;;;;;;5054145;28;20434;-66
2022/11/19 10:18:43;;;;;;;1999.90;999.90;;;0.20;99.90;;;;;;5054601;28;20789;-68
2022/11/19 10:21:17;;;;;;;1999.90;999.90;;;0.40;99.90;;;;;;5054637;28;20430;-68
2022/11/19 10:23:49;;;;;;;1999.90;999.90;;;0.40;99.90;;;;;;5053762;28;20836;-67
2022/11/19 10:26:18;;;;;;;1999.90;999.90;;;0.50;99.90;;;;;;5053849;28;20427;-67
2022/11/19 10:28:57;;;;;;;1999.90;999.90;;;0.50;99.90;;;;;;5051693;28;20493;-66
2022/11/19 10:31:34;;;;;;;1999.90;999.90;;;0.40;99.90;;;;;;5050291;28;20465;-67
2022/11/19 10:34:07;;;;;;;1999.90;999.90;;;0.50;99.90;;;;;;5053003;28;20954;-68
2022/11/19 10:36:38;;;;;;;1999.90;999.90;;;0.60;99.90;;;;;;5047418;28;20560;-67
2022/11/19 10:39:11;;;;;;;1999.90;999.90;;;0.70;99.90;;;;;;5050084;28;20470;-67
2022/11/19 10:41:45;;;;;;;1999.90;999.90;;;0.80;99.90;;;;;;5053432;28;20469;-67
2022/11/19 10:47:19;;;;;;;1999.90;999.90;;;1.00;99.90;;;;;;5123940;27;20546;-67
2022/11/19 10:49:51;;;;;;;1999.90;999.90;;;1.20;99.90;;;;;;5102972;28;20480;-67
2022/11/19 10:52:25;;;;;;;1999.90;999.90;;;1.40;99.90;;;;;;5089533;28;20827;-68
2022/11/19 10:54:56;;;;;;;1999.90;999.90;;;1.50;99.90;;;;;;5089254;28;20456;-66
2022/11/19 10:57:23;;;;;;;1999.90;999.90;;;1.60;99.90;;;;;;5089589;28;20452;-66
2022/11/19 10:59:53;;;;;;;1999.90;999.90;;;1.70;99.90;;;;;;5094771;28;20488;-67
2022/11/19 11:02:26;;;;;;;1999.90;999.90;;;1.70;99.90;;;;;;5089393;28;20504;-67
2022/11/19 11:05:06;;;;;;;1999.90;999.90;;;1.70;99.90;;;;;;5088665;28;20481;-66
2022/11/19 11:07:52;;;;;;;1999.90;999.90;;;1.60;99.90;;;;;;5091129;28;20460;-66
2022/11/19 11:10:33;;;;;;;1999.90;999.90;;;1.60;99.90;;;;;;5089784;28;20485;-68
2022/11/19 11:16:04;;;;;;;1999.90;999.90;;;1.60;99.90;;;;;;5091656;28;20486;-67
2022/11/19 11:18:32;;;;;;;1999.90;999.90;;;1.70;99.90;;;;;;5087676;28;20842;-66
2022/11/19 11:20:59;;;;;;;1999.90;999.90;;;1.70;99.90;;;;;;5088680;28;20465;-67
2022/11/19 11:23:28;;;;;;;1999.90;999.90;;;1.70;99.90;;;;;;5083998;28;20459;-67
2022/11/19 11:26:02;;;;;;;1999.90;999.90;;;1.70;99.90;;;;;;5081878;28;20862;-67
2022/11/19 11:28:29;;;;;;;1999.90;999.90;;;1.70;99.90;;;;;;5083219;28;20453;-67
2022/11/19 11:30:58;;;;;;;1999.90;999.90;;;1.70;99.90;;;;;;5086133;28;20464;-68
2022/11/19 11:33:28;;;;;;;1999.90;999.90;;;1.80;99.90;;;;;;5084222;28;20833;-67
2022/11/19 11:35:59;;;;;;;1999.90;999.90;;;1.80;99.90;;;;;;5081622;28;20464;-67
2022/11/19 11:38:27;;;;;;;1999.90;999.90;;;1.90;99.90;;;;;;5084872;28;20460;-67
2022/11/19 11:41:02;;;;;;;1999.90;999.90;;;2.00;99.90;;;;;;5085433;28;20953;-67
2022/11/19 11:43:30;;;;;;;1999.90;999.90;;;2.00;99.90;;;;;;5083715;28;20517;-67
2022/11/19 11:45:58;;;;;;;1999.90;999.90;;;2.20;99.90;;;;;;5087578;28;20486;-67
2022/11/19 11:48:25;;;;;;;1999.90;999.90;;;2.10;99.90;;;;;;5084465;28;20460;-67
2022/11/19 11:50:52;;;;;;;1999.90;999.90;;;2.40;99.90;;;;;;5083653;28;20464;-68
2022/11/19 11:53:31;;;;;;;1999.90;999.90;;;2.30;99.90;;;;;;5086087;28;20461;-67
2022/11/19 11:55:58;;;;;;;1999.90;999.90;;;2.40;99.90;;;;;;5082331;28;20543;-67
2022/11/19 11:58:29;;;;;;;1999.90;999.90;;;2.40;99.90;;;;;;5072259;28;20832;-69
2022/11/19 12:01:11;;;;;;;1999.90;999.90;;;2.40;99.90;;;;;;5074279;28;20922;-70
2022/11/19 12:03:52;;;;;;;1999.90;999.90;;;2.30;99.90;;;;;;5072575;28;20519;-70
2022/11/19 12:06:22;;;;;;;1999.90;999.90;;;2.30;99.90;;;;;;5062570;28;20487;-67
2022/11/19 12:08:56;;;;;;;1999.90;999.90;;;2.30;99.90;;;;;;5054373;28;20470;-68
2022/11/19 12:11:52;;;;;;;1999.90;999.90;;;2.20;99.90;;;;;;5054313;28;20495;-68
2022/11/19 12:14:19;;;;;;;1999.90;999.90;;;2.20;99.90;;;;;;5054148;28;20438;-67
2022/11/19 12:16:58;;;;;;;1999.90;999.90;;;2.30;99.90;;;;;;5064261;28;21022;-67
2022/11/19 12:20:00;;;;;;;1999.90;999.90;;;2.40;99.90;;;;;;5065866;28;20469;-68
2022/11/19 12:22:37;;;;;;;1999.90;999.90;;;2.30;99.90;;;;;;5073450;28;20455;-67
2022/11/19 12:25:21;;;;;;;1999.90;999.90;;;2.20;99.90;;;;;;5056574;28;20442;-68
2022/11/19 12:28:02;;;;;;;1999.90;999.90;;;2.30;99.90;;;;;;5053881;28;20445;-67
2022/11/19 12:30:34;;;;;;;1999.90;999.90;;;2.20;99.90;;;;;;5066078;28;20469;-68
2022/11/19 12:33:13;;;;;;;1999.90;999.90;;;2.30;99.90;;;;;;5074538;28;20432;-68
2022/11/19 12:35:54;;;;;;;1999.90;999.90;;;2.10;99.90;;;;;;5072750;28;20429;-71